MKJS/MBJ METAR and TAF weather

Enter ICAO airport designator
Station Type Date Time Source
MKJS METAR 2019/10/23 03:00 UTC NOAA

MKJS 230300Z 12005KT 9999 FEW022 28/24 Q1013


Station Type Date Time Source
MKJS Decoded METAR 2019/10/23 03:00 UTC NOAA

Montego Bay / Sangster, Jamaica (MKJS) 18-30N 077-55W 8M
Oct 22, 2019 - 11:00 PM EDT / 2019.10.23 0300 UTC
Wind: from the ESE (120 degrees) at 6 MPH (5 KT):0
Visibility: greater than 7 mile(s):0
Sky conditions: mostly clear
Temperature: 82 F (28 C)
Dew Point: 75 F (24 C)
Relative Humidity: 78%
Pressure (altimeter): 29.91 in. Hg (1013 hPa)
ob: MKJS 230300Z 12005KT 9999 FEW022 28/24 Q1013
cycle: 3

Station Type Date Time Source
MKJS TAF 2019/10/22 18:21 UTC NOAA

TAF MKJS 221715Z 2218/2318 05014KT 9999 FEW022 FEW024CB
TEMPO 2219/2302 7000 TSRA SCT018 BKN020CB
BECMG 2302/2304 15005KT FEW020 FEW022CB
BECMG 2313/2315 05017KT

Example: see airport list